createdAt,value
2019-05-29T00:01:26.668Z,82.08
2019-05-29T00:03:55.184Z,81.50
2019-05-29T00:06:23.701Z,81.51
2019-05-29T00:08:52.213Z,81.03
2019-05-29T00:11:20.711Z,81.08
2019-05-29T00:13:49.228Z,80.76
2019-05-29T00:16:18.570Z,80.47
2019-05-29T00:18:47.208Z,80.09
2019-05-29T00:21:15.727Z,81.28
2019-05-29T00:23:44.214Z,80.28
2019-05-29T00:26:12.716Z,81.28
2019-05-29T00:28:41.207Z,82.40
2019-05-29T00:31:09.952Z,82.41
2019-05-29T00:33:38.595Z,82.32
2019-05-29T00:36:08.237Z,80.57
2019-05-29T00:38:36.825Z,81.12
2019-05-29T00:41:06.719Z,81.80
2019-05-29T00:43:35.379Z,81.06
2019-05-29T00:46:04.015Z,80.32
2019-05-29T00:48:32.503Z,80.71
2019-05-29T00:51:01.019Z,81.25
2019-05-29T00:53:29.505Z,80.59
2019-05-29T00:55:58.029Z,81.16
2019-05-29T00:58:26.510Z,80.39
2019-05-29T01:00:54.998Z,81.44
2019-05-29T01:03:23.495Z,81.54
2019-05-29T01:05:51.979Z,81.31
2019-05-29T01:08:20.571Z,81.13
2019-05-29T01:10:49.052Z,81.80
2019-05-29T01:13:17.693Z,81.07
2019-05-29T01:15:46.176Z,80.67
2019-05-29T01:18:15.710Z,82.09
2019-05-29T01:20:44.234Z,82.65
2019-05-29T01:23:12.758Z,82.54
2019-05-29T01:25:41.236Z,83.18
2019-05-29T01:28:09.733Z,82.37
2019-05-29T01:30:38.223Z,83.13
2019-05-29T01:33:06.740Z,82.43
2019-05-29T01:35:35.227Z,81.42
2019-05-29T01:38:03.817Z,81.47
2019-05-29T01:40:32.304Z,80.65
2019-05-29T01:43:00.815Z,80.61
2019-05-29T01:45:29.295Z,81.06
2019-05-29T01:47:57.789Z,81.10
2019-05-29T01:50:26.286Z,81.49
2019-05-29T01:52:54.786Z,81.35
2019-05-29T01:55:23.809Z,80.97
2019-05-29T01:57:52.468Z,81.47
2019-05-29T02:00:21.944Z,81.12
2019-05-29T02:02:50.565Z,80.38
2019-05-29T02:05:19.968Z,81.27
2019-05-29T02:07:48.596Z,81.00
2019-05-29T02:10:18.245Z,81.31
2019-05-29T02:12:46.887Z,80.78
2019-05-29T02:15:25.986Z,79.72
2019-05-29T02:17:46.177Z,78.71
2019-05-29T02:20:16.865Z,79.58
2019-05-29T02:22:45.508Z,79.17
2019-05-29T02:25:16.404Z,79.02
2019-05-29T02:27:44.458Z,79.69
2019-05-29T02:30:13.595Z,80.43
2019-05-29T02:32:42.086Z,80.04
2019-05-29T02:35:10.738Z,78.64
2019-05-29T02:37:39.229Z,80.09
2019-05-29T02:40:08.595Z,80.25
2019-05-29T02:42:37.430Z,80.34
2019-05-29T02:45:07.159Z,79.46
2019-05-29T02:47:35.675Z,80.09
2019-05-29T02:50:08.295Z,79.11
2019-05-29T02:52:36.858Z,80.38
2019-05-29T02:55:07.637Z,79.25
2019-05-29T02:57:36.121Z,80.53
2019-05-29T03:00:08.165Z,79.36
2019-05-29T03:02:36.709Z,80.36
2019-05-29T03:05:06.643Z,81.70
2019-05-29T03:07:35.523Z,81.26
2019-05-29T03:10:06.661Z,80.66
2019-05-29T03:12:35.279Z,80.66
2019-05-29T03:15:07.748Z,81.02
2019-05-29T03:17:36.219Z,80.60
2019-05-29T03:20:06.876Z,79.40
2019-05-29T03:22:35.458Z,79.54
2019-05-29T03:25:05.781Z,80.58
2019-05-29T03:27:34.258Z,80.21
2019-05-29T03:30:02.854Z,81.71
2019-05-29T03:32:37.753Z,82.38
2019-05-29T03:35:01.585Z,81.87
2019-05-29T03:37:30.451Z,80.28
2019-05-29T03:39:59.038Z,80.81
2019-05-29T03:42:28.317Z,79.71
2019-05-29T03:44:56.905Z,80.67
2019-05-29T03:47:26.894Z,80.81
2019-05-29T03:49:55.629Z,80.61
2019-05-29T03:52:24.115Z,83.89
2019-05-29T03:54:52.631Z,83.75
2019-05-29T03:57:21.122Z,83.78
2019-05-29T03:59:49.629Z,83.49
2019-05-29T04:02:18.114Z,82.26
2019-05-29T04:04:46.632Z,83.93
2019-05-29T04:07:15.216Z,82.07
2019-05-29T04:09:43.740Z,83.32
2019-05-29T04:12:12.260Z,82.88
2019-05-29T04:14:40.989Z,82.98
2019-05-29T04:17:10.416Z,83.42
2019-05-29T04:19:39.038Z,84.60
2019-05-29T04:22:10.022Z,84.43
2019-05-29T04:24:40.544Z,83.06
2019-05-29T04:27:13.505Z,85.10
2019-05-29T04:29:43.929Z,82.67
2019-05-29T04:32:12.443Z,82.04
2019-05-29T04:34:40.959Z,83.22
2019-05-29T04:37:09.517Z,82.89
2019-05-29T04:39:39.052Z,83.03
2019-05-29T04:42:07.799Z,82.80
2019-05-29T04:44:38.342Z,83.37
2019-05-29T04:47:11.033Z,82.54
2019-05-29T04:49:37.941Z,82.16
2019-05-29T04:52:06.960Z,81.71
2019-05-29T04:54:35.470Z,81.79
2019-05-29T04:57:03.938Z,80.30
2019-05-29T04:59:33.035Z,81.24
2019-05-29T05:02:01.739Z,81.14
2019-05-29T05:04:31.009Z,81.17
2019-05-29T05:06:59.619Z,81.85
2019-05-29T05:09:29.195Z,81.26
2019-05-29T05:11:57.934Z,82.40
2019-05-29T05:14:26.453Z,82.40
2019-05-29T05:16:55.413Z,83.05
2019-05-29T05:19:23.922Z,83.49
2019-05-29T05:21:52.424Z,81.83
2019-05-29T05:24:20.934Z,81.79
2019-05-29T05:26:49.430Z,83.37
2019-05-29T05:29:17.917Z,84.64
2019-05-29T05:31:46.511Z,84.07
2019-05-29T05:34:14.990Z,83.24
2019-05-29T05:36:43.486Z,82.91
2019-05-29T05:39:11.971Z,83.31
2019-05-29T05:41:41.085Z,84.21
2019-05-29T05:44:09.614Z,86.67
2019-05-29T05:46:39.171Z,85.46
2019-05-29T05:49:07.804Z,85.35
2019-05-29T05:51:39.698Z,83.87
2019-05-29T05:54:06.599Z,83.57
2019-05-29T05:56:35.855Z,84.67
2019-05-29T05:59:04.967Z,84.17
2019-05-29T06:01:33.780Z,83.30
2019-05-29T06:04:02.462Z,81.61
2019-05-29T06:06:31.976Z,82.05
2019-05-29T06:09:00.575Z,81.26
2019-05-29T06:11:29.084Z,78.68
2019-05-29T06:13:57.663Z,78.68
2019-05-29T06:16:26.157Z,78.36
2019-05-29T06:18:54.640Z,78.55
2019-05-29T06:21:23.167Z,77.31
2019-05-29T06:23:51.684Z,77.74
2019-05-29T06:26:20.170Z,78.15
2019-05-29T06:28:48.690Z,78.26
2019-05-29T06:31:17.278Z,77.72
2019-05-29T06:33:45.799Z,80.15
2019-05-29T06:36:14.384Z,78.66
2019-05-29T06:38:44.437Z,80.23
2019-05-29T06:41:13.295Z,79.93
2019-05-29T06:43:41.975Z,79.65
2019-05-29T06:46:10.474Z,79.49
2019-05-29T06:48:46.394Z,79.01
2019-05-29T06:51:09.222Z,79.65
2019-05-29T06:53:37.871Z,79.20
2019-05-29T06:56:06.411Z,80.19
2019-05-29T06:58:35.874Z,79.40
2019-05-29T07:01:04.904Z,79.96
2019-05-29T07:03:33.663Z,79.38
2019-05-29T07:06:02.299Z,77.95
2019-05-29T07:08:38.869Z,76.06
2019-05-29T07:11:01.080Z,77.50
2019-05-29T07:13:29.626Z,76.95
2019-05-29T07:15:58.153Z,75.85
2019-05-29T07:18:26.671Z,78.24
2019-05-29T07:20:56.666Z,78.49
2019-05-29T07:23:25.184Z,75.66
2019-05-29T07:25:53.739Z,75.10
2019-05-29T07:28:22.297Z,74.21
2019-05-29T07:31:00.471Z,73.93
2019-05-29T07:33:21.102Z,75.45
2019-05-29T07:35:49.585Z,74.54
2019-05-29T07:38:18.103Z,74.65
2019-05-29T07:40:48.216Z,74.41
2019-05-29T07:43:16.925Z,75.23
2019-05-29T07:45:46.197Z,72.25
2019-05-29T07:48:14.807Z,72.68
2019-05-29T07:50:44.151Z,75.57
2019-05-29T07:53:12.693Z,73.49
2019-05-29T07:55:42.492Z,73.38
2019-05-29T07:58:11.307Z,73.75
2019-05-29T08:01:03.751Z,71.53
2019-05-29T08:03:10.044Z,73.15
2019-05-29T08:05:39.161Z,68.01
2019-05-29T08:08:07.842Z,68.46
2019-05-29T08:10:36.391Z,67.68
2019-05-29T08:13:05.028Z,68.99
2019-05-29T08:15:33.838Z,71.44
2019-05-29T08:18:02.425Z,70.27
2019-05-29T08:20:30.930Z,71.90
2019-05-29T08:22:59.423Z,69.53
2019-05-29T08:25:27.948Z,68.47
2019-05-29T08:27:56.438Z,67.79
2019-05-29T08:30:25.010Z,66.74
2019-05-29T08:32:55.787Z,65.48
2019-05-29T08:35:24.316Z,66.71
2019-05-29T08:37:52.835Z,68.74
2019-05-29T08:40:21.554Z,66.53
2019-05-29T08:42:50.050Z,65.93
2019-05-29T08:45:19.084Z,66.28
2019-05-29T08:47:47.789Z,66.43
2019-05-29T08:50:18.643Z,68.29
2019-05-29T08:52:47.956Z,66.86
2019-05-29T08:55:16.993Z,65.56
2019-05-29T08:57:46.345Z,63.48
2019-05-29T09:00:16.160Z,62.61
2019-05-29T09:02:44.789Z,64.30
2019-05-29T09:05:15.885Z,62.91
2019-05-29T09:07:45.921Z,61.42
2019-05-29T09:10:14.894Z,61.68
2019-05-29T09:12:49.474Z,64.33
2019-05-29T09:15:20.552Z,61.35
2019-05-29T09:17:44.298Z,61.22
2019-05-29T09:20:31.102Z,61.49
2019-05-29T09:22:43.291Z,60.29
2019-05-29T09:25:13.629Z,63.15
2019-05-29T09:27:42.162Z,61.99
2019-05-29T09:30:10.796Z,61.30
2019-05-29T09:32:49.989Z,62.21
2019-05-29T09:35:09.778Z,62.05
2019-05-29T09:37:38.330Z,61.29
2019-05-29T09:40:09.860Z,63.08
2019-05-29T09:42:38.388Z,63.77
2019-05-29T09:45:07.699Z,63.44
2019-05-29T09:47:36.212Z,63.38
2019-05-29T09:50:09.471Z,64.06
2019-05-29T09:52:37.997Z,64.78
2019-05-29T09:55:07.014Z,63.86
2019-05-29T09:57:35.569Z,63.01
2019-05-29T10:00:10.440Z,63.64
2019-05-29T10:02:38.995Z,62.32
2019-05-29T10:05:10.134Z,63.57
2019-05-29T10:07:39.166Z,63.04
2019-05-29T10:10:12.637Z,63.97
2019-05-29T10:12:41.261Z,64.73
2019-05-29T10:15:11.422Z,64.92
2019-05-29T10:17:40.048Z,63.93
2019-05-29T10:20:10.411Z,64.21
2019-05-29T10:22:38.929Z,63.23
2019-05-29T10:25:08.360Z,64.23
2019-05-29T10:27:36.882Z,64.72
2019-05-29T10:30:09.267Z,64.43
2019-05-29T10:32:37.846Z,64.20
2019-05-29T10:35:07.507Z,64.40
2019-05-29T10:37:36.081Z,64.55
2019-05-29T10:40:08.152Z,65.12
2019-05-29T10:42:36.815Z,64.52
2019-05-29T10:45:09.686Z,64.62
2019-05-29T10:47:38.242Z,65.49
2019-05-29T10:50:08.689Z,63.97
2019-05-29T10:52:37.198Z,63.51
2019-05-29T10:55:07.771Z,65.01
2019-05-29T10:57:36.345Z,65.20
2019-05-29T11:00:09.809Z,63.32
2019-05-29T11:02:38.307Z,65.18
2019-05-29T11:05:07.043Z,63.66
2019-05-29T11:07:35.682Z,65.57
2019-05-29T11:10:05.519Z,66.29
2019-05-29T11:12:38.903Z,66.67
2019-05-29T11:15:20.813Z,64.93
2019-05-29T11:17:37.139Z,66.75
2019-05-29T11:20:09.470Z,65.09
2019-05-29T11:22:37.979Z,64.45
2019-05-29T11:25:22.119Z,62.13
2019-05-29T11:27:37.784Z,61.99
2019-05-29T11:30:08.607Z,61.58
2019-05-29T11:32:37.141Z,63.89
2019-05-29T11:35:06.564Z,62.42
2019-05-29T11:37:35.057Z,63.15
2019-05-29T11:40:04.015Z,62.52
2019-05-29T11:42:32.571Z,62.20
2019-05-29T11:45:01.059Z,63.04
2019-05-29T11:47:29.652Z,64.12
2019-05-29T11:50:03.274Z,60.91
2019-05-29T11:52:39.835Z,59.65
2019-05-29T11:55:00.110Z,60.76
2019-05-29T11:57:28.837Z,62.23
2019-05-29T12:00:00.162Z,64.37
2019-05-29T12:02:27.564Z,64.95
2019-05-29T12:05:02.687Z,63.92
2019-05-29T12:07:29.105Z,64.53
2019-05-29T12:09:57.607Z,63.12
2019-05-29T12:12:26.110Z,62.62
2019-05-29T12:15:06.103Z,60.83
2019-05-29T12:17:24.839Z,62.81
2019-05-29T12:19:54.170Z,61.30
2019-05-29T12:22:22.807Z,64.04
2019-05-29T12:24:52.515Z,62.87
2019-05-29T12:27:21.149Z,61.98
2019-05-29T12:29:49.654Z,61.91
2019-05-29T12:32:18.160Z,61.98
2019-05-29T12:34:53.596Z,62.58
2019-05-29T12:37:16.861Z,63.11
2019-05-29T12:39:45.378Z,62.67
2019-05-29T12:42:14.750Z,61.29
2019-05-29T12:44:43.265Z,59.29
2019-05-29T12:47:11.767Z,61.65
2019-05-29T12:49:40.267Z,61.39
2019-05-29T12:52:09.845Z,59.45
2019-05-29T12:54:38.785Z,60.19
2019-05-29T12:57:07.453Z,62.60
2019-05-29T12:59:37.626Z,61.36
2019-05-29T13:02:07.398Z,61.25
2019-05-29T13:05:05.111Z,60.32
2019-05-29T13:07:06.114Z,59.91
2019-05-29T13:09:34.645Z,59.97
2019-05-29T13:12:04.672Z,57.59
2019-05-29T13:14:33.380Z,58.61
2019-05-29T13:17:03.061Z,58.67
2019-05-29T13:19:31.731Z,60.99
2019-05-29T13:22:01.659Z,57.78
2019-05-29T13:24:30.313Z,60.30
2019-05-29T13:26:59.648Z,60.38
2019-05-29T13:29:28.373Z,60.06
2019-05-29T13:31:58.069Z,60.81
2019-05-29T13:34:27.083Z,61.95
2019-05-29T13:36:59.803Z,62.29
2019-05-29T13:39:25.887Z,60.49
2019-05-29T13:41:54.377Z,61.14
2019-05-29T13:44:22.868Z,61.40
2019-05-29T13:46:51.381Z,58.21
2019-05-29T13:49:19.926Z,59.40
2019-05-29T13:51:48.406Z,57.93
2019-05-29T13:54:18.190Z,57.60
2019-05-29T13:56:47.075Z,56.44
2019-05-29T13:59:16.859Z,58.21
2019-05-29T14:01:48.303Z,58.31
2019-05-29T14:04:15.581Z,59.86
2019-05-29T14:06:44.102Z,59.03
2019-05-29T14:09:12.584Z,58.69
2019-05-29T14:11:41.099Z,58.16
2019-05-29T14:14:12.947Z,58.47
2019-05-29T14:16:39.861Z,59.74
2019-05-29T14:19:08.857Z,58.25
2019-05-29T14:21:37.440Z,57.71
2019-05-29T14:24:23.441Z,56.34
2019-05-29T14:26:37.443Z,56.84
2019-05-29T14:29:06.176Z,57.14
2019-05-29T14:31:34.725Z,56.28
2019-05-29T14:34:03.295Z,56.68
2019-05-29T14:36:31.780Z,56.37
2019-05-29T14:39:01.555Z,56.57
2019-05-29T14:41:30.187Z,57.25
2019-05-29T14:43:58.706Z,57.44
2019-05-29T14:46:27.196Z,56.63
2019-05-29T14:48:55.711Z,54.65
2019-05-29T14:51:24.185Z,56.44
2019-05-29T14:53:52.787Z,55.28
2019-05-29T14:56:21.327Z,56.54
2019-05-29T14:58:49.978Z,54.67
2019-05-29T15:01:18.461Z,54.28
2019-05-29T15:03:46.958Z,55.54
2019-05-29T15:06:15.602Z,55.98
2019-05-29T15:08:44.095Z,55.53
2019-05-29T15:11:12.674Z,55.14
2019-05-29T15:13:41.537Z,57.82
2019-05-29T15:16:10.881Z,58.51
2019-05-29T15:18:39.438Z,55.90
2019-05-29T15:21:08.994Z,57.14
2019-05-29T15:23:37.612Z,52.19
2019-05-29T15:26:06.169Z,55.10
2019-05-29T15:28:34.680Z,53.64
2019-05-29T15:31:03.183Z,54.54
2019-05-29T15:33:31.703Z,53.83
2019-05-29T15:36:00.203Z,54.62
2019-05-29T15:38:28.962Z,55.00
2019-05-29T15:40:57.506Z,55.50
2019-05-29T15:43:25.989Z,56.15
2019-05-29T15:45:54.701Z,55.84
2019-05-29T15:48:23.263Z,55.99
2019-05-29T15:50:51.760Z,56.59
2019-05-29T15:53:20.333Z,55.58
2019-05-29T15:55:48.819Z,55.44
2019-05-29T15:58:18.026Z,54.57
2019-05-29T16:00:49.437Z,53.48
2019-05-29T16:03:18.003Z,52.03
2019-05-29T16:05:46.575Z,51.45
2019-05-29T16:08:16.071Z,51.42
2019-05-29T16:10:45.533Z,52.13
2019-05-29T16:13:14.967Z,52.96
2019-05-29T16:15:43.584Z,51.50
2019-05-29T16:18:26.202Z,53.28
2019-05-29T16:20:42.335Z,53.48
2019-05-29T16:23:10.980Z,51.62
2019-05-29T16:25:40.761Z,51.76
2019-05-29T16:28:09.490Z,52.95
2019-05-29T16:30:38.007Z,53.77
2019-05-29T16:33:06.805Z,53.49
2019-05-29T16:35:37.600Z,51.93
2019-05-29T16:38:06.334Z,51.15
2019-05-29T16:40:34.848Z,50.06
2019-05-29T16:43:03.826Z,50.80
2019-05-29T16:45:32.397Z,51.21
2019-05-29T16:48:00.878Z,51.51
2019-05-29T16:50:29.390Z,51.47
2019-05-29T16:52:57.881Z,52.30
2019-05-29T16:55:26.398Z,51.67
2019-05-29T16:57:54.880Z,52.76
2019-05-29T17:00:24.040Z,52.88
2019-05-29T17:02:52.514Z,52.41
2019-05-29T17:05:22.195Z,54.03
2019-05-29T17:07:50.733Z,53.48
2019-05-29T17:10:22.484Z,51.71
2019-05-29T17:12:51.158Z,52.63
2019-05-29T17:15:20.770Z,53.57
2019-05-29T17:17:49.329Z,52.03
2019-05-29T17:20:20.883Z,51.80
2019-05-29T17:22:49.458Z,53.52
2019-05-29T17:25:18.931Z,53.25
2019-05-29T17:27:47.500Z,51.72
2019-05-29T17:30:19.039Z,52.21
2019-05-29T17:32:46.857Z,52.26
2019-05-29T17:35:17.300Z,52.21
2019-05-29T17:37:45.872Z,52.66
2019-05-29T17:40:15.447Z,52.92
2019-05-29T17:42:43.957Z,52.93
2019-05-29T17:45:13.818Z,52.60
2019-05-29T17:47:42.993Z,51.15
2019-05-29T17:50:11.841Z,53.92
2019-05-29T17:52:40.420Z,53.33
2019-05-29T17:55:10.693Z,54.73
2019-05-29T17:57:39.176Z,53.18
2019-05-29T18:00:15.880Z,52.15
2019-05-29T18:02:52.114Z,53.33
2019-05-29T18:05:18.295Z,54.04
2019-05-29T18:07:47.074Z,53.05
2019-05-29T18:10:19.387Z,53.28
2019-05-29T18:12:46.219Z,53.52
2019-05-29T18:15:17.124Z,54.30
2019-05-29T18:17:45.625Z,53.90
2019-05-29T18:20:15.325Z,53.02
2019-05-29T18:22:43.942Z,53.74
2019-05-29T18:25:13.106Z,54.96
2019-05-29T18:27:41.605Z,54.96
2019-05-29T18:30:10.834Z,55.04
2019-05-29T18:32:39.321Z,55.50
2019-05-29T18:35:08.980Z,55.81
2019-05-29T18:37:37.616Z,54.95
2019-05-29T18:40:12.278Z,55.54
2019-05-29T18:42:38.777Z,54.41
2019-05-29T18:45:20.316Z,55.21
2019-05-29T18:47:43.344Z,54.49
2019-05-29T18:50:12.581Z,55.54
2019-05-29T18:52:41.077Z,56.54
2019-05-29T18:55:11.612Z,56.01
2019-05-29T18:57:40.289Z,57.28
2019-05-29T19:00:10.594Z,55.90
2019-05-29T19:02:39.353Z,55.01
2019-05-29T19:05:08.585Z,55.58
2019-05-29T19:07:37.083Z,57.34
2019-05-29T19:10:09.515Z,57.81
2019-05-29T19:12:38.038Z,57.57
2019-05-29T19:15:08.101Z,58.66
2019-05-29T19:17:36.726Z,57.24
2019-05-29T19:20:06.907Z,58.35
2019-05-29T19:22:35.452Z,58.63
2019-05-29T19:25:07.933Z,57.36
2019-05-29T19:27:41.330Z,57.01
2019-05-29T19:30:10.946Z,56.85
2019-05-29T19:32:39.513Z,56.88
2019-05-29T19:35:09.047Z,57.76
2019-05-29T19:37:37.648Z,58.52
2019-05-29T19:40:07.204Z,59.33
2019-05-29T19:42:35.722Z,58.89
2019-05-29T19:45:08.600Z,60.75
2019-05-29T19:47:37.099Z,59.49
2019-05-29T19:50:11.334Z,60.54
2019-05-29T19:52:40.253Z,59.64
2019-05-29T19:55:09.123Z,59.48
2019-05-29T19:57:52.552Z,58.20
2019-05-29T20:00:10.046Z,57.64
2019-05-29T20:02:39.413Z,58.40
2019-05-29T20:05:08.330Z,57.67
2019-05-29T20:07:37.518Z,57.60
2019-05-29T20:10:07.534Z,57.53
2019-05-29T20:12:36.121Z,57.57
2019-05-29T20:15:06.626Z,57.42
2019-05-29T20:17:36.257Z,58.61
2019-05-29T20:20:08.026Z,57.54
2019-05-29T20:22:36.999Z,57.72
2019-05-29T20:25:09.006Z,57.52
2019-05-29T20:27:36.880Z,58.35
2019-05-29T20:30:07.323Z,58.20
2019-05-29T20:32:36.886Z,58.74
2019-05-29T20:35:06.582Z,58.44
2019-05-29T20:37:36.288Z,59.69
2019-05-29T20:40:06.402Z,60.47
2019-05-29T20:42:34.890Z,59.67
2019-05-29T20:45:04.378Z,60.63
2019-05-29T20:47:33.594Z,60.76
2019-05-29T20:50:02.173Z,61.33
2019-05-29T20:52:31.052Z,60.66
2019-05-29T20:54:59.676Z,61.67
2019-05-29T20:57:28.160Z,60.99
2019-05-29T20:59:56.683Z,59.06
2019-05-29T21:02:25.154Z,60.12
2019-05-29T21:04:53.668Z,61.46
2019-05-29T21:07:22.148Z,61.85
2019-05-29T21:09:50.652Z,61.82
2019-05-29T21:12:19.141Z,61.82
2019-05-29T21:14:47.656Z,61.73
2019-05-29T21:17:16.135Z,61.62
2019-05-29T21:19:44.845Z,60.27
2019-05-29T21:22:13.545Z,61.48
2019-05-29T21:24:50.029Z,60.22
2019-05-29T21:27:12.257Z,61.25
2019-05-29T21:29:41.269Z,61.48
2019-05-29T21:32:09.839Z,61.66
2019-05-29T21:34:38.409Z,61.40
2019-05-29T21:37:07.019Z,62.02
2019-05-29T21:39:36.296Z,61.83
2019-05-29T21:42:05.042Z,61.93
2019-05-29T21:44:33.560Z,62.03
2019-05-29T21:47:02.049Z,63.04
2019-05-29T21:49:31.617Z,63.45
2019-05-29T21:52:00.322Z,63.35
2019-05-29T21:54:28.801Z,64.13
2019-05-29T21:56:57.313Z,63.63
2019-05-29T21:59:25.890Z,63.30
2019-05-29T22:01:54.581Z,63.40
2019-05-29T22:04:23.584Z,62.83
2019-05-29T22:06:52.165Z,63.28
2019-05-29T22:09:20.654Z,62.84
2019-05-29T22:11:50.251Z,65.15
2019-05-29T22:14:18.873Z,63.71
2019-05-29T22:16:47.365Z,64.06
2019-05-29T22:19:15.948Z,64.83
2019-05-29T22:21:44.433Z,64.82
2019-05-29T22:24:13.014Z,66.19
2019-05-29T22:26:41.498Z,65.18
2019-05-29T22:29:17.842Z,64.42
2019-05-29T22:31:40.355Z,65.35
2019-05-29T22:34:08.848Z,65.07
2019-05-29T22:36:37.328Z,66.19
2019-05-29T22:39:07.035Z,64.60
2019-05-29T22:41:35.533Z,63.34
2019-05-29T22:44:04.982Z,65.27
2019-05-29T22:46:33.483Z,66.27
2019-05-29T22:49:02.115Z,66.35
2019-05-29T22:51:30.551Z,64.91
2019-05-29T22:53:59.927Z,64.81
2019-05-29T22:56:28.552Z,64.17
2019-05-29T22:58:58.052Z,63.82
2019-05-29T23:01:26.733Z,63.58
2019-05-29T23:03:56.077Z,64.93
2019-05-29T23:06:24.704Z,65.41
2019-05-29T23:08:54.151Z,65.41
2019-05-29T23:11:22.788Z,65.47
2019-05-29T23:13:52.230Z,63.41
2019-05-29T23:16:20.871Z,64.39
2019-05-29T23:18:49.417Z,64.18
2019-05-29T23:21:17.932Z,63.50
2019-05-29T23:23:46.481Z,65.96
2019-05-29T23:26:15.000Z,65.71
2019-05-29T23:28:43.487Z,65.69
2019-05-29T23:31:11.968Z,65.26
2019-05-29T23:33:40.468Z,64.89
2019-05-29T23:36:08.943Z,65.04
2019-05-29T23:38:37.432Z,65.77
2019-05-29T23:41:06.042Z,66.87
2019-05-29T23:43:34.595Z,66.40
2019-05-29T23:46:04.004Z,65.68
2019-05-29T23:48:32.564Z,65.80
2019-05-29T23:51:01.718Z,66.15
2019-05-29T23:53:30.338Z,65.52
2019-05-29T23:55:59.733Z,65.02
2019-05-29T23:58:28.307Z,67.34
